Terminal Aerodrome Forecast
Issued by NWS Wilmington, OH

Current Version | Previous Version | Graphics & Text | Print | Product List | Glossary On
Versions: 1 2 3 4 5 6 7 8 9 10 11 12 13 14 15 16 17 18 19 20 21 22 23 24 25 26 27 28 29 30 31
000
FTUS41 KILN 290817 AAB
TAFILN
TAF AMD
KILN 290817Z 2908/3006 00000KT 1/4SM FG BKN003
     FM291300 VRB03KT P6SM SCT025
     FM291600 23005KT P6SM VCTS BKN040CB BKN150
     FM300100 00000KT P6SM SCT030 BKN150=

USA.gov is the U.S. government's official web portal to all federal, state and local government web resources and services.